Tolley, North Dakota
Current Conditions -  °F | °C
As of 12:23 AM on Friday 19 Dec 2014 (Local Time) from KMIB Reporting Station
Haze Haze  
Wind Chill: 16°   Ceiling: 300
Heat Index: 23°   Visibility: 5mi
Dew Point: 23°   Wind: 6mph
Humidity: 100%   Direction: 130°SE
Pressure: 29.95"   Gusts: NA
Location:  48.73°N, 101.83°W
Report Text: KMIB 190623Z AUTO 13005KT 5SM R11/4500FT BR BKN003 OVC008 M05/M05 A2995 RMK AO2 CIG 003V005 $
Loading
Personal Weather Stations






























Interactive Weather Map New forecast layout! Learn more

10-Day Weather Forecast

Advertisements
Track Severe Weather on mobile